sensor_id;sensor_type;location;lat;lon;timestamp;P1;P2;P0
76784;PMS7003;66893;44.316;0.092;2023-06-04T00:02:03;8.25;7.00;6.00
76784;PMS7003;66893;44.316;0.092;2023-06-04T00:04:29;8.00;8.00;6.00
76784;PMS7003;66893;44.316;0.092;2023-06-04T00:06:55;8.00;7.00;6.00
76784;PMS7003;66893;44.316;0.092;2023-06-04T00:09:20;9.25;9.25;7.00
76784;PMS7003;66893;44.316;0.092;2023-06-04T00:11:46;8.50;7.50;5.00
76784;PMS7003;66893;44.316;0.092;2023-06-04T00:14:13;8.50;8.00;6.00
76784;PMS7003;66893;44.316;0.092;2023-06-04T00:16:38;7.00;7.00;5.50
76784;PMS7003;66893;44.316;0.092;2023-06-04T00:19:05;7.75;7.75;6.00
76784;PMS7003;66893;44.316;0.092;2023-06-04T00:21:31;10.25;8.00;6.00
76784;PMS7003;66893;44.316;0.092;2023-06-04T00:23:57;9.00;8.75;6.50
76784;PMS7003;66893;44.316;0.092;2023-06-04T00:26:24;7.00;7.00;6.00
76784;PMS7003;66893;44.316;0.092;2023-06-04T00:28:49;8.00;8.00;7.00
76784;PMS7003;66893;44.316;0.092;2023-06-04T00:31:15;6.25;6.25;4.50
76784;PMS7003;66893;44.316;0.092;2023-06-04T00:33:40;8.00;8.00;7.00
76784;PMS7003;66893;44.316;0.092;2023-06-04T00:36:06;8.00;8.00;6.00
76784;PMS7003;66893;44.316;0.092;2023-06-04T00:38:32;8.50;8.50;6.25
76784;PMS7003;66893;44.316;0.092;2023-06-04T00:40:58;9.50;7.75;6.25
76784;PMS7003;66893;44.316;0.092;2023-06-04T00:43:23;7.75;7.00;6.00
76784;PMS7003;66893;44.316;0.092;2023-06-04T00:45:53;5.00;5.00;5.00
76784;PMS7003;66893;44.316;0.092;2023-06-04T00:48:19;8.75;7.75;5.50
76784;PMS7003;66893;44.316;0.092;2023-06-04T00:50:46;9.50;8.00;6.75
76784;PMS7003;66893;44.316;0.092;2023-06-04T00:53:15;8.75;8.50;7.50
76784;PMS7003;66893;44.316;0.092;2023-06-04T00:55:41;11.50;9.00;6.50
76784;PMS7003;66893;44.316;0.092;2023-06-04T00:58:08;9.50;7.50;6.75
76784;PMS7003;66893;44.316;0.092;2023-06-04T01:00:34;10.50;9.00;6.75
76784;PMS7003;66893;44.316;0.092;2023-06-04T01:03:03;7.75;7.75;6.00
76784;PMS7003;66893;44.316;0.092;2023-06-04T01:05:54;8.00;7.00;5.50
76784;PMS7003;66893;44.316;0.092;2023-06-04T01:08:20;10.00;8.25;7.00
76784;PMS7003;66893;44.316;0.092;2023-06-04T01:10:54;7.25;6.75;5.25
76784;PMS7003;66893;44.316;0.092;2023-06-04T01:13:21;8.25;8.25;7.00
76784;PMS7003;66893;44.316;0.092;2023-06-04T01:15:46;8.25;8.00;6.00
76784;PMS7003;66893;44.316;0.092;2023-06-04T01:18:13;8.50;8.00;6.00
76784;PMS7003;66893;44.316;0.092;2023-06-04T01:20:52;10.00;8.25;6.25
76784;PMS7003;66893;44.316;0.092;2023-06-04T01:26:26;9.00;8.00;7.00
76784;PMS7003;66893;44.316;0.092;2023-06-04T01:28:53;7.25;7.00;6.00
76784;PMS7003;66893;44.316;0.092;2023-06-04T01:31:20;10.25;8.00;6.00
76784;PMS7003;66893;44.316;0.092;2023-06-04T01:33:55;9.00;9.00;7.00
76784;PMS7003;66893;44.316;0.092;2023-06-04T01:36:23;9.00;9.00;7.00
76784;PMS7003;66893;44.316;0.092;2023-06-04T01:38:48;9.25;9.00;7.00
76784;PMS7003;66893;44.316;0.092;2023-06-04T01:41:14;9.00;8.25;7.00
76784;PMS7003;66893;44.316;0.092;2023-06-04T01:43:39;8.00;8.00;6.00
76784;PMS7003;66893;44.316;0.092;2023-06-04T01:46:05;8.25;7.50;6.50
76784;PMS7003;66893;44.316;0.092;2023-06-04T01:48:30;10.50;9.25;7.50
76784;PMS7003;66893;44.316;0.092;2023-06-04T01:50:57;11.75;10.25;7.25
76784;PMS7003;66893;44.316;0.092;2023-06-04T01:53:22;7.25;7.25;7.00
76784;PMS7003;66893;44.316;0.092;2023-06-04T01:55:48;8.75;8.00;7.00
76784;PMS7003;66893;44.316;0.092;2023-06-04T01:58:14;7.75;7.00;5.25
76784;PMS7003;66893;44.316;0.092;2023-06-04T02:00:43;7.00;7.00;6.00
76784;PMS7003;66893;44.316;0.092;2023-06-04T02:03:08;10.50;8.25;6.25
76784;PMS7003;66893;44.316;0.092;2023-06-04T02:05:35;12.00;10.00;8.00
76784;PMS7003;66893;44.316;0.092;2023-06-04T02:08:01;12.25;8.25;6.25
76784;PMS7003;66893;44.316;0.092;2023-06-04T02:10:29;9.50;9.50;7.50
76784;PMS7003;66893;44.316;0.092;2023-06-04T02:12:56;8.75;8.50;7.00
76784;PMS7003;66893;44.316;0.092;2023-06-04T02:15:24;8.00;8.00;6.50
76784;PMS7003;66893;44.316;0.092;2023-06-04T02:17:50;9.50;9.50;7.75
76784;PMS7003;66893;44.316;0.092;2023-06-04T02:20:16;11.50;8.50;7.25
76784;PMS7003;66893;44.316;0.092;2023-06-04T02:22:45;11.50;9.75;8.00
76784;PMS7003;66893;44.316;0.092;2023-06-04T02:25:10;8.25;8.00;6.50
76784;PMS7003;66893;44.316;0.092;2023-06-04T02:27:36;7.75;7.75;5.75
76784;PMS7003;66893;44.316;0.092;2023-06-04T02:30:02;8.25;8.25;6.00
76784;PMS7003;66893;44.316;0.092;2023-06-04T02:32:28;8.25;7.50;6.25
76784;PMS7003;66893;44.316;0.092;2023-06-04T02:34:54;10.50;8.00;7.00
76784;PMS7003;66893;44.316;0.092;2023-06-04T02:37:20;8.25;7.75;6.00
76784;PMS7003;66893;44.316;0.092;2023-06-04T02:39:46;10.50;10.00;6.50
76784;PMS7003;66893;44.316;0.092;2023-06-04T02:42:11;9.50;8.00;6.75
76784;PMS7003;66893;44.316;0.092;2023-06-04T02:44:37;9.25;9.00;7.00
76784;PMS7003;66893;44.316;0.092;2023-06-04T02:47:02;8.25;8.25;6.25
76784;PMS7003;66893;44.316;0.092;2023-06-04T02:49:28;7.50;6.75;5.25
76784;PMS7003;66893;44.316;0.092;2023-06-04T02:51:54;10.50;10.25;7.00
76784;PMS7003;66893;44.316;0.092;2023-06-04T02:54:19;7.75;6.75;5.00
76784;PMS7003;66893;44.316;0.092;2023-06-04T02:56:45;7.00;7.00;6.00
76784;PMS7003;66893;44.316;0.092;2023-06-04T02:59:10;7.00;6.00;3.00
76784;PMS7003;66893;44.316;0.092;2023-06-04T03:01:36;7.25;7.25;6.00
76784;PMS7003;66893;44.316;0.092;2023-06-04T03:04:01;6.25;5.75;5.00
76784;PMS7003;66893;44.316;0.092;2023-06-04T03:06:35;10.00;8.25;6.75
76784;PMS7003;66893;44.316;0.092;2023-06-04T03:09:04;8.75;7.00;6.00
76784;PMS7003;66893;44.316;0.092;2023-06-04T03:11:30;10.25;7.25;6.75
76784;PMS7003;66893;44.316;0.092;2023-06-04T03:13:55;8.50;7.00;6.00
76784;PMS7003;66893;44.316;0.092;2023-06-04T03:16:21;9.00;7.50;6.00
76784;PMS7003;66893;44.316;0.092;2023-06-04T03:18:47;8.00;8.00;6.25
76784;PMS7003;66893;44.316;0.092;2023-06-04T03:21:13;8.50;5.75;5.00
76784;PMS7003;66893;44.316;0.092;2023-06-04T03:23:39;6.00;6.00;5.25
76784;PMS7003;66893;44.316;0.092;2023-06-04T03:26:05;7.25;6.25;5.00
76784;PMS7003;66893;44.316;0.092;2023-06-04T03:28:31;8.25;7.50;6.50
76784;PMS7003;66893;44.316;0.092;2023-06-04T03:30:58;11.00;8.25;6.00
76784;PMS7003;66893;44.316;0.092;2023-06-04T03:33:24;9.25;7.75;6.00
76784;PMS7003;66893;44.316;0.092;2023-06-04T03:35:50;9.00;7.25;6.00
76784;PMS7003;66893;44.316;0.092;2023-06-04T03:38:17;9.00;7.50;6.00
76784;PMS7003;66893;44.316;0.092;2023-06-04T03:40:43;8.00;8.00;6.25
76784;PMS7003;66893;44.316;0.092;2023-06-04T03:43:09;10.00;8.00;6.00
76784;PMS7003;66893;44.316;0.092;2023-06-04T03:45:35;6.50;6.00;5.00
76784;PMS7003;66893;44.316;0.092;2023-06-04T03:48:00;7.75;7.75;6.00
76784;PMS7003;66893;44.316;0.092;2023-06-04T03:50:26;9.75;8.25;7.00
76784;PMS7003;66893;44.316;0.092;2023-06-04T03:52:51;7.25;7.25;6.50
76784;PMS7003;66893;44.316;0.092;2023-06-04T03:55:17;7.75;7.00;5.75
76784;PMS7003;66893;44.316;0.092;2023-06-04T03:57:45;7.50;7.50;6.25
76784;PMS7003;66893;44.316;0.092;2023-06-04T04:00:11;10.00;9.50;7.00
76784;PMS7003;66893;44.316;0.092;2023-06-04T04:02:38;8.75;8.75;5.75
76784;PMS7003;66893;44.316;0.092;2023-06-04T04:05:04;6.75;6.75;5.75
76784;PMS7003;66893;44.316;0.092;2023-06-04T04:07:30;9.00;9.00;6.25
76784;PMS7003;66893;44.316;0.092;2023-06-04T04:09:55;9.75;8.00;6.25
76784;PMS7003;66893;44.316;0.092;2023-06-04T04:12:21;8.25;7.50;5.25
76784;PMS7003;66893;44.316;0.092;2023-06-04T04:14:47;8.00;8.00;6.25
76784;PMS7003;66893;44.316;0.092;2023-06-04T04:17:15;9.75;8.25;6.25
76784;PMS7003;66893;44.316;0.092;2023-06-04T04:19:40;9.00;9.00;6.75
76784;PMS7003;66893;44.316;0.092;2023-06-04T04:22:06;10.25;10.25;8.00
76784;PMS7003;66893;44.316;0.092;2023-06-04T04:24:32;7.75;7.75;6.50
76784;PMS7003;66893;44.316;0.092;2023-06-04T04:27:00;11.00;10.00;7.00
76784;PMS7003;66893;44.316;0.092;2023-06-04T04:29:29;7.25;7.00;4.75
76784;PMS7003;66893;44.316;0.092;2023-06-04T04:31:57;7.50;7.50;5.00
76784;PMS7003;66893;44.316;0.092;2023-06-04T04:34:26;8.00;6.25;5.50
76784;PMS7003;66893;44.316;0.092;2023-06-04T04:36:52;9.50;7.75;6.25
76784;PMS7003;66893;44.316;0.092;2023-06-04T04:39:23;8.50;8.50;7.25
76784;PMS7003;66893;44.316;0.092;2023-06-04T04:41:50;8.50;8.00;6.00
76784;PMS7003;66893;44.316;0.092;2023-06-04T04:44:15;8.00;8.00;6.00
76784;PMS7003;66893;44.316;0.092;2023-06-04T04:46:41;8.00;7.00;5.00
76784;PMS7003;66893;44.316;0.092;2023-06-04T04:49:06;7.75;7.75;6.00
76784;PMS7003;66893;44.316;0.092;2023-06-04T04:51:32;9.00;6.25;5.25
76784;PMS7003;66893;44.316;0.092;2023-06-04T04:53:57;10.00;9.25;6.00
76784;PMS7003;66893;44.316;0.092;2023-06-04T04:56:25;7.50;7.50;6.25
76784;PMS7003;66893;44.316;0.092;2023-06-04T04:58:51;14.00;9.00;7.75
76784;PMS7003;66893;44.316;0.092;2023-06-04T05:01:17;7.25;7.25;6.00
76784;PMS7003;66893;44.316;0.092;2023-06-04T05:03:45;11.00;9.25;7.25
76784;PMS7003;66893;44.316;0.092;2023-06-04T05:06:11;9.50;9.50;6.75
76784;PMS7003;66893;44.316;0.092;2023-06-04T05:08:36;11.00;10.00;7.00
76784;PMS7003;66893;44.316;0.092;2023-06-04T05:11:02;11.50;9.00;7.00
76784;PMS7003;66893;44.316;0.092;2023-06-04T05:13:28;10.75;10.75;7.00
76784;PMS7003;66893;44.316;0.092;2023-06-04T05:15:53;10.00;10.00;8.00
76784;PMS7003;66893;44.316;0.092;2023-06-04T05:18:19;11.25;11.25;9.50
76784;PMS7003;66893;44.316;0.092;2023-06-04T05:20:53;10.00;10.00;7.75
76784;PMS7003;66893;44.316;0.092;2023-06-04T05:23:22;11.25;10.75;8.00
76784;PMS7003;66893;44.316;0.092;2023-06-04T05:25:48;13.25;8.75;7.00
76784;PMS7003;66893;44.316;0.092;2023-06-04T05:28:14;10.00;10.00;7.50
76784;PMS7003;66893;44.316;0.092;2023-06-04T05:30:40;13.50;12.25;9.50
76784;PMS7003;66893;44.316;0.092;2023-06-04T05:33:06;13.75;9.50;7.25
76784;PMS7003;66893;44.316;0.092;2023-06-04T05:35:36;11.75;11.50;8.00
76784;PMS7003;66893;44.316;0.092;2023-06-04T05:38:06;16.00;15.50;9.50
76784;PMS7003;66893;44.316;0.092;2023-06-04T05:40:31;11.25;11.25;8.00
76784;PMS7003;66893;44.316;0.092;2023-06-04T05:42:57;12.50;11.50;8.25
76784;PMS7003;66893;44.316;0.092;2023-06-04T05:45:22;14.75;14.00;10.00
76784;PMS7003;66893;44.316;0.092;2023-06-04T05:47:48;14.50;12.25;8.25
76784;PMS7003;66893;44.316;0.092;2023-06-04T05:50:13;13.25;13.25;8.00
76784;PMS7003;66893;44.316;0.092;2023-06-04T05:52:39;15.75;12.00;9.50
76784;PMS7003;66893;44.316;0.092;2023-06-04T05:55:05;13.50;11.25;8.25
76784;PMS7003;66893;44.316;0.092;2023-06-04T05:57:32;15.25;14.75;10.25
76784;PMS7003;66893;44.316;0.092;2023-06-04T05:59:58;16.00;14.75;9.75
76784;PMS7003;66893;44.316;0.092;2023-06-04T06:02:23;15.25;12.75;8.75
76784;PMS7003;66893;44.316;0.092;2023-06-04T06:04:49;14.25;12.75;10.00
76784;PMS7003;66893;44.316;0.092;2023-06-04T06:07:14;13.00;12.25;9.75
76784;PMS7003;66893;44.316;0.092;2023-06-04T06:09:40;14.50;12.50;8.75
76784;PMS7003;66893;44.316;0.092;2023-06-04T06:12:05;16.75;15.00;11.25
76784;PMS7003;66893;44.316;0.092;2023-06-04T06:14:31;16.25;15.25;11.50
76784;PMS7003;66893;44.316;0.092;2023-06-04T06:16:56;13.50;12.25;9.00
76784;PMS7003;66893;44.316;0.092;2023-06-04T06:19:22;16.50;15.00;10.00
76784;PMS7003;66893;44.316;0.092;2023-06-04T06:21:47;17.25;14.25;10.75
76784;PMS7003;66893;44.316;0.092;2023-06-04T06:24:13;16.75;13.75;9.25
76784;PMS7003;66893;44.316;0.092;2023-06-04T06:26:38;20.75;18.75;12.50
76784;PMS7003;66893;44.316;0.092;2023-06-04T06:29:04;20.25;20.00;14.25
76784;PMS7003;66893;44.316;0.092;2023-06-04T06:31:29;26.75;24.75;16.00
76784;PMS7003;66893;44.316;0.092;2023-06-04T06:33:54;28.50;27.00;16.00
76784;PMS7003;66893;44.316;0.092;2023-06-04T06:36:20;24.00;22.75;13.25
76784;PMS7003;66893;44.316;0.092;2023-06-04T06:38:46;24.25;21.50;14.00
76784;PMS7003;66893;44.316;0.092;2023-06-04T06:41:11;25.75;25.25;15.50
76784;PMS7003;66893;44.316;0.092;2023-06-04T06:43:37;28.25;23.75;15.75
76784;PMS7003;66893;44.316;0.092;2023-06-04T06:46:03;26.00;23.50;15.50
76784;PMS7003;66893;44.316;0.092;2023-06-04T06:48:28;24.00;22.50;15.75
76784;PMS7003;66893;44.316;0.092;2023-06-04T06:50:54;24.00;21.50;15.00
76784;PMS7003;66893;44.316;0.092;2023-06-04T06:53:20;25.25;20.00;15.00
76784;PMS7003;66893;44.316;0.092;2023-06-04T06:55:46;23.75;21.25;15.25
76784;PMS7003;66893;44.316;0.092;2023-06-04T06:58:11;28.00;21.75;14.50
76784;PMS7003;66893;44.316;0.092;2023-06-04T07:00:36;27.50;25.25;15.50
76784;PMS7003;66893;44.316;0.092;2023-06-04T07:03:02;29.50;24.25;14.25
76784;PMS7003;66893;44.316;0.092;2023-06-04T07:05:29;24.00;24.00;15.00
76784;PMS7003;66893;44.316;0.092;2023-06-04T07:07:54;26.50;21.25;14.25
76784;PMS7003;66893;44.316;0.092;2023-06-04T07:10:22;23.25;23.00;15.50
76784;PMS7003;66893;44.316;0.092;2023-06-04T07:12:47;23.25;19.25;12.75
76784;PMS7003;66893;44.316;0.092;2023-06-04T07:15:13;23.00;21.25;14.25
76784;PMS7003;66893;44.316;0.092;2023-06-04T07:17:38;23.00;19.00;13.75
76784;PMS7003;66893;44.316;0.092;2023-06-04T07:20:04;31.00;25.50;15.75
76784;PMS7003;66893;44.316;0.092;2023-06-04T07:22:32;27.00;23.50;15.25
76784;PMS7003;66893;44.316;0.092;2023-06-04T07:24:57;23.25;19.50;13.75
76784;PMS7003;66893;44.316;0.092;2023-06-04T07:27:23;26.75;22.00;12.75
76784;PMS7003;66893;44.316;0.092;2023-06-04T07:29:48;25.00;21.75;15.50
76784;PMS7003;66893;44.316;0.092;2023-06-04T07:32:14;29.25;25.75;15.75
76784;PMS7003;66893;44.316;0.092;2023-06-04T07:34:39;21.75;19.25;12.75
76784;PMS7003;66893;44.316;0.092;2023-06-04T07:37:05;28.75;23.00;16.25
76784;PMS7003;66893;44.316;0.092;2023-06-04T07:39:30;27.00;23.50;15.25
76784;PMS7003;66893;44.316;0.092;2023-06-04T07:41:56;27.75;19.75;15.00
76784;PMS7003;66893;44.316;0.092;2023-06-04T07:44:21;30.25;22.50;14.25
76784;PMS7003;66893;44.316;0.092;2023-06-04T07:46:47;24.00;20.50;14.75
76784;PMS7003;66893;44.316;0.092;2023-06-04T07:49:13;30.25;26.50;16.50
76784;PMS7003;66893;44.316;0.092;2023-06-04T07:51:39;23.00;20.50;14.50
76784;PMS7003;66893;44.316;0.092;2023-06-04T07:54:04;20.25;18.25;11.50
76784;PMS7003;66893;44.316;0.092;2023-06-04T07:56:30;22.00;19.75;11.50
76784;PMS7003;66893;44.316;0.092;2023-06-04T07:58:55;28.75;24.75;16.50
76784;PMS7003;66893;44.316;0.092;2023-06-04T08:01:20;25.50;23.75;15.50
76784;PMS7003;66893;44.316;0.092;2023-06-04T08:03:46;28.25;24.75;16.25
76784;PMS7003;66893;44.316;0.092;2023-06-04T08:06:12;22.75;21.50;15.75
76784;PMS7003;66893;44.316;0.092;2023-06-04T08:08:41;27.75;27.00;16.00
76784;PMS7003;66893;44.316;0.092;2023-06-04T08:11:10;29.50;26.75;18.00
76784;PMS7003;66893;44.316;0.092;2023-06-04T08:13:36;27.75;23.00;14.25
76784;PMS7003;66893;44.316;0.092;2023-06-04T08:16:01;29.50;25.00;16.75
76784;PMS7003;66893;44.316;0.092;2023-06-04T08:18:27;28.25;26.25;17.00
76784;PMS7003;66893;44.316;0.092;2023-06-04T08:20:54;28.25;26.00;16.00
76784;PMS7003;66893;44.316;0.092;2023-06-04T08:23:20;28.00;25.25;16.00
76784;PMS7003;66893;44.316;0.092;2023-06-04T08:25:45;29.25;24.50;14.75
76784;PMS7003;66893;44.316;0.092;2023-06-04T08:28:12;33.50;27.75;16.00
76784;PMS7003;66893;44.316;0.092;2023-06-04T08:30:38;30.50;28.50;17.50
76784;PMS7003;66893;44.316;0.092;2023-06-04T08:33:04;31.75;25.75;15.75
76784;PMS7003;66893;44.316;0.092;2023-06-04T08:35:29;25.00;23.75;16.50
76784;PMS7003;66893;44.316;0.092;2023-06-04T08:37:55;30.25;26.75;17.00
76784;PMS7003;66893;44.316;0.092;2023-06-04T08:40:20;28.50;25.75;16.75
76784;PMS7003;66893;44.316;0.092;2023-06-04T08:42:47;29.00;26.25;16.50
76784;PMS7003;66893;44.316;0.092;2023-06-04T08:45:13;30.50;27.75;16.50
76784;PMS7003;66893;44.316;0.092;2023-06-04T08:47:49;30.00;27.50;17.50
76784;PMS7003;66893;44.316;0.092;2023-06-04T08:50:25;35.75;25.75;16.25
76784;PMS7003;66893;44.316;0.092;2023-06-04T08:52:53;27.25;24.75;16.25
76784;PMS7003;66893;44.316;0.092;2023-06-04T08:55:20;26.00;24.50;17.50
76784;PMS7003;66893;44.316;0.092;2023-06-04T08:57:47;32.25;28.50;17.75
76784;PMS7003;66893;44.316;0.092;2023-06-04T09:00:16;30.00;27.25;17.50
76784;PMS7003;66893;44.316;0.092;2023-06-04T09:02:43;26.75;26.00;16.50
76784;PMS7003;66893;44.316;0.092;2023-06-04T09:05:10;25.00;23.50;16.50
76784;PMS7003;66893;44.316;0.092;2023-06-04T09:07:44;28.50;26.00;17.75
76784;PMS7003;66893;44.316;0.092;2023-06-04T09:10:11;35.00;30.50;20.50
76784;PMS7003;66893;44.316;0.092;2023-06-04T09:12:43;32.75;28.50;19.25
76784;PMS7003;66893;44.316;0.092;2023-06-04T09:15:15;34.75;30.75;19.25
76784;PMS7003;66893;44.316;0.092;2023-06-04T09:17:40;33.25;30.50;19.00
76784;PMS7003;66893;44.316;0.092;2023-06-04T09:20:06;32.50;27.25;19.50
76784;PMS7003;66893;44.316;0.092;2023-06-04T09:22:35;31.25;28.25;19.50
76784;PMS7003;66893;44.316;0.092;2023-06-04T09:25:03;32.00;29.25;20.00
76784;PMS7003;66893;44.316;0.092;2023-06-04T09:27:39;25.50;24.00;16.50
76784;PMS7003;66893;44.316;0.092;2023-06-04T09:30:05;37.75;30.75;20.25
76784;PMS7003;66893;44.316;0.092;2023-06-04T09:32:32;35.00;31.00;18.75
76784;PMS7003;66893;44.316;0.092;2023-06-04T09:37:35;35.50;33.25;20.25
76784;PMS7003;66893;44.316;0.092;2023-06-04T09:40:00;31.25;28.25;18.00
76784;PMS7003;66893;44.316;0.092;2023-06-04T09:42:27;38.25;31.50;20.25
76784;PMS7003;66893;44.316;0.092;2023-06-04T09:44:53;28.75;25.50;17.25
76784;PMS7003;66893;44.316;0.092;2023-06-04T09:47:19;36.25;32.75;20.50
76784;PMS7003;66893;44.316;0.092;2023-06-04T09:49:47;31.50;30.00;18.25
76784;PMS7003;66893;44.316;0.092;2023-06-04T09:52:16;29.25;26.75;17.75
76784;PMS7003;66893;44.316;0.092;2023-06-04T09:54:42;35.25;29.75;20.25
76784;PMS7003;66893;44.316;0.092;2023-06-04T09:57:17;33.25;29.00;18.25
76784;PMS7003;66893;44.316;0.092;2023-06-04T09:59:44;39.00;33.50;20.25
76784;PMS7003;66893;44.316;0.092;2023-06-04T10:02:11;34.50;31.50;21.25
76784;PMS7003;66893;44.316;0.092;2023-06-04T10:04:40;27.00;27.00;18.50
76784;PMS7003;66893;44.316;0.092;2023-06-04T10:07:11;33.25;31.50;20.50
76784;PMS7003;66893;44.316;0.092;2023-06-04T10:09:40;32.00;30.00;19.75
76784;PMS7003;66893;44.316;0.092;2023-06-04T10:12:11;33.25;28.00;19.25
76784;PMS7003;66893;44.316;0.092;2023-06-04T10:15:02;34.75;31.25;20.25
76784;PMS7003;66893;44.316;0.092;2023-06-04T10:17:35;30.00;27.00;18.00
76784;PMS7003;66893;44.316;0.092;2023-06-04T10:20:01;37.75;30.50;19.25
76784;PMS7003;66893;44.316;0.092;2023-06-04T10:22:30;30.00;27.75;19.25
76784;PMS7003;66893;44.316;0.092;2023-06-04T10:24:57;30.75;27.75;18.50
76784;PMS7003;66893;44.316;0.092;2023-06-04T10:27:23;27.25;27.00;16.75
76784;PMS7003;66893;44.316;0.092;2023-06-04T10:29:50;31.50;28.25;17.25
76784;PMS7003;66893;44.316;0.092;2023-06-04T10:32:16;31.25;30.00;18.25
76784;PMS7003;66893;44.316;0.092;2023-06-04T10:34:43;30.75;26.75;19.00
76784;PMS7003;66893;44.316;0.092;2023-06-04T10:39:53;26.25;25.25;18.75
76784;PMS7003;66893;44.316;0.092;2023-06-04T10:42:20;26.75;23.50;16.50
76784;PMS7003;66893;44.316;0.092;2023-06-04T10:44:47;27.00;23.75;16.25
76784;PMS7003;66893;44.316;0.092;2023-06-04T10:49:46;25.75;23.25;18.00
76784;PMS7003;66893;44.316;0.092;2023-06-04T10:52:11;27.00;23.75;16.50
76784;PMS7003;66893;44.316;0.092;2023-06-04T10:54:37;24.50;21.50;15.25
76784;PMS7003;66893;44.316;0.092;2023-06-04T10:57:15;27.25;26.25;16.25
76784;PMS7003;66893;44.316;0.092;2023-06-04T10:59:52;26.50;23.00;15.75
76784;PMS7003;66893;44.316;0.092;2023-06-04T11:02:19;38.25;32.00;17.50
76784;PMS7003;66893;44.316;0.092;2023-06-04T11:04:44;28.75;23.75;17.25
76784;PMS7003;66893;44.316;0.092;2023-06-04T11:07:11;24.50;22.25;15.25
76784;PMS7003;66893;44.316;0.092;2023-06-04T11:09:57;28.50;24.00;16.00
76784;PMS7003;66893;44.316;0.092;2023-06-04T11:12:22;23.00;23.00;16.25
76784;PMS7003;66893;44.316;0.092;2023-06-04T11:14:57;29.25;26.00;16.75
76784;PMS7003;66893;44.316;0.092;2023-06-04T11:17:24;28.50;24.25;16.75
76784;PMS7003;66893;44.316;0.092;2023-06-04T11:19:50;27.00;24.75;17.75
76784;PMS7003;66893;44.316;0.092;2023-06-04T11:22:20;25.75;22.25;14.75
76784;PMS7003;66893;44.316;0.092;2023-06-04T11:24:45;29.75;25.50;16.50
76784;PMS7003;66893;44.316;0.092;2023-06-04T11:27:11;23.75;21.75;15.25
76784;PMS7003;66893;44.316;0.092;2023-06-04T11:29:37;28.25;23.25;16.75
76784;PMS7003;66893;44.316;0.092;2023-06-04T11:32:03;27.75;20.00;14.50
76784;PMS7003;66893;44.316;0.092;2023-06-04T11:34:29;22.75;22.50;16.00
76784;PMS7003;66893;44.316;0.092;2023-06-04T11:36:56;25.00;23.50;15.75
76784;PMS7003;66893;44.316;0.092;2023-06-04T11:39:22;20.50;19.50;14.00
76784;PMS7003;66893;44.316;0.092;2023-06-04T11:41:48;26.75;21.25;15.25
76784;PMS7003;66893;44.316;0.092;2023-06-04T11:44:17;23.50;20.50;12.75
76784;PMS7003;66893;44.316;0.092;2023-06-04T11:46:45;22.50;19.00;11.50
76784;PMS7003;66893;44.316;0.092;2023-06-04T11:49:14;23.75;21.25;14.00
76784;PMS7003;66893;44.316;0.092;2023-06-04T11:51:45;17.25;17.00;13.25
76784;PMS7003;66893;44.316;0.092;2023-06-04T11:54:18;28.50;26.25;16.75
76784;PMS7003;66893;44.316;0.092;2023-06-04T11:56:45;20.75;20.25;13.50
76784;PMS7003;66893;44.316;0.092;2023-06-04T11:59:13;24.00;19.75;13.25
76784;PMS7003;66893;44.316;0.092;2023-06-04T12:01:43;24.25;19.50;13.25
76784;PMS7003;66893;44.316;0.092;2023-06-04T12:04:14;20.50;19.00;14.25
76784;PMS7003;66893;44.316;0.092;2023-06-04T12:06:53;19.75;17.75;13.25
76784;PMS7003;66893;44.316;0.092;2023-06-04T12:09:22;22.75;18.50;13.75
76784;PMS7003;66893;44.316;0.092;2023-06-04T12:11:49;22.00;17.50;11.75
76784;PMS7003;66893;44.316;0.092;2023-06-04T12:14:18;24.75;20.00;14.00
76784;PMS7003;66893;44.316;0.092;2023-06-04T12:19:21;18.25;17.25;14.50
76784;PMS7003;66893;44.316;0.092;2023-06-04T12:21:47;20.50;20.50;13.00
76784;PMS7003;66893;44.316;0.092;2023-06-04T12:24:31;23.25;21.00;15.00
76784;PMS7003;66893;44.316;0.092;2023-06-04T12:27:06;21.75;18.50;12.50
76784;PMS7003;66893;44.316;0.092;2023-06-04T12:29:33;21.50;19.75;13.00
76784;PMS7003;66893;44.316;0.092;2023-06-04T12:32:06;22.00;21.25;13.50
76784;PMS7003;66893;44.316;0.092;2023-06-04T12:34:33;20.25;16.75;12.25
76784;PMS7003;66893;44.316;0.092;2023-06-04T12:36:59;20.00;18.00;12.25
76784;PMS7003;66893;44.316;0.092;2023-06-04T12:39:25;20.25;18.25;13.75
76784;PMS7003;66893;44.316;0.092;2023-06-04T12:41:51;22.25;19.75;12.50
76784;PMS7003;66893;44.316;0.092;2023-06-04T12:44:16;20.50;19.25;13.25
76784;PMS7003;66893;44.316;0.092;2023-06-04T12:46:42;19.00;17.50;12.25
76784;PMS7003;66893;44.316;0.092;2023-06-04T12:49:10;20.00;19.50;12.75
76784;PMS7003;66893;44.316;0.092;2023-06-04T12:51:37;15.75;14.50;11.75
76784;PMS7003;66893;44.316;0.092;2023-06-04T12:54:03;20.00;17.50;13.25
76784;PMS7003;66893;44.316;0.092;2023-06-04T12:56:29;18.25;18.00;13.50
76784;PMS7003;66893;44.316;0.092;2023-06-04T12:58:54;22.00;21.75;13.25
76784;PMS7003;66893;44.316;0.092;2023-06-04T13:01:20;16.50;15.50;11.00
76784;PMS7003;66893;44.316;0.092;2023-06-04T13:03:45;19.00;16.75;13.50
76784;PMS7003;66893;44.316;0.092;2023-06-04T13:06:11;21.50;17.75;12.75
76784;PMS7003;66893;44.316;0.092;2023-06-04T13:08:36;19.25;18.00;13.75
76784;PMS7003;66893;44.316;0.092;2023-06-04T13:11:02;17.00;16.75;13.75
76784;PMS7003;66893;44.316;0.092;2023-06-04T13:13:27;19.50;16.00;12.00
76784;PMS7003;66893;44.316;0.092;2023-06-04T13:15:54;18.50;16.75;11.25
76784;PMS7003;66893;44.316;0.092;2023-06-04T13:18:20;16.50;16.50;11.25
76784;PMS7003;66893;44.316;0.092;2023-06-04T13:20:45;19.75;17.25;11.75
76784;PMS7003;66893;44.316;0.092;2023-06-04T13:23:11;15.25;13.25;11.00
76784;PMS7003;66893;44.316;0.092;2023-06-04T13:25:37;18.50;16.50;11.50
76784;PMS7003;66893;44.316;0.092;2023-06-04T13:28:03;17.00;17.00;12.50
76784;PMS7003;66893;44.316;0.092;2023-06-04T13:30:29;18.50;17.00;13.00
76784;PMS7003;66893;44.316;0.092;2023-06-04T13:32:55;17.75;17.50;12.50
76784;PMS7003;66893;44.316;0.092;2023-06-04T13:35:20;18.75;17.00;11.25
76784;PMS7003;66893;44.316;0.092;2023-06-04T13:37:46;17.75;15.50;11.25
76784;PMS7003;66893;44.316;0.092;2023-06-04T13:40:12;14.50;13.75;10.50
76784;PMS7003;66893;44.316;0.092;2023-06-04T13:42:38;16.50;15.50;11.00
76784;PMS7003;66893;44.316;0.092;2023-06-04T13:45:03;17.75;16.75;12.75
76784;PMS7003;66893;44.316;0.092;2023-06-04T13:47:29;13.25;13.25;10.50
76784;PMS7003;66893;44.316;0.092;2023-06-04T13:49:55;18.25;13.50;10.25
76784;PMS7003;66893;44.316;0.092;2023-06-04T13:52:20;14.50;14.50;12.00
76784;PMS7003;66893;44.316;0.092;2023-06-04T13:54:46;15.75;14.25;10.25
76784;PMS7003;66893;44.316;0.092;2023-06-04T13:57:11;15.25;14.50;11.00
76784;PMS7003;66893;44.316;0.092;2023-06-04T13:59:39;16.50;15.00;10.25
76784;PMS7003;66893;44.316;0.092;2023-06-04T14:02:05;14.75;14.25;10.75
76784;PMS7003;66893;44.316;0.092;2023-06-04T14:04:31;12.25;12.25;8.25
76784;PMS7003;66893;44.316;0.092;2023-06-04T14:06:57;14.75;13.00;9.00
76784;PMS7003;66893;44.316;0.092;2023-06-04T14:09:22;15.25;15.00;10.75
76784;PMS7003;66893;44.316;0.092;2023-06-04T14:11:48;17.00;16.00;12.50